Главная страница
METAR-TAF:

METAR-TAF

Аэропорты :

Уилкс-Барре / Скрентон, Пенсильвания, США

широта: 41-20-20N, долгота: 075-43-36W, высота над уровнем моря: 293 м

Текущие метеонаблюдения

Эта сводка был подготовлена 17 минут назад, в 14:54 UTC
Ветер 7 Узел от южный-юго-западный
Температура 27°C
Влажность 62%
Давление 1021 hPa
Видимость: 16.1 км
ясное небо

METAR: KAVP 091454Z 21007KT 10SM CLR 27/19 A3015 RMK AO2 SLP199 T02670194 58002

Время: 11:11 (15:11 UTC)

Прогноз

Эта сводка был подготовлена 3 часа и 32 минут назад, в 11:39 UTC
Прогноз действительный с 09-го 12 UTC до 10-го 12 UTC
Ветер 3 Узел переменных направлений
Видимость: 10 км
Отдельные облака на высоте 12000 фута
С 09-го 1500 UTC
Ветер 5 Узел от западный-юго-западный
Видимость: 10 км
Отдельные облака на высоте 5000 фута
С 10-го 0200 UTC
Ветер 3 Узел переменных направлений
Видимость: 10 км
небольшая облачность на высоте 10000 фута

TAF: KAVP 091139Z 0912/1012 VRB03KT P6SM SCT120 FM091500 24005KT P6SM SCT050 FM100200 VRB03KT P6SM FEW100

Метеонаблюдения и прогнозы для более 4000 аэропортов (сводки METAR и TAF).

Имеющиеся станции представлены на карте желтыми и красными точками.

Чтобы увидеть название станции, наведите на нее мышь.

Затем щелкните, чтобы увидеть метеонаблюдения и метеопрогнозы.

Управление картой: чтобы увеличить масштаб, щелкните зеленые кнопки с черным крестиком; чтобы уменьшить масштаб, щелкните зеленую кнопку с тире; для просмотра соседних карт щелкайте зеленые стрелки.


METAR-TAF: